Time;durP1;ratioP1;P1;durP2;ratioP2;P2;SDS_P1;SDS_P2;PMS_P1;PMS_P2;Temp;Humidity;BMP_temperature;BMP_pressure;BME280_temperature;BME280_humidity;BME280_pressure;Samples;Min_cycle;Max_cycle;Signal;HPM_P1;HPM_P2
2022/01/22 00:01:12;;;;;;;7.57;6.25;;;;;;;1.84;100.00;99155.22;10401736;28;20084;-61
2022/01/22 00:06:15;;;;;;;7.15;6.13;;;;;;;1.83;100.00;99129.59;10404851;28;20049;-55
2022/01/22 00:11:18;;;;;;;7.38;6.43;;;;;;;1.85;100.00;99139.19;10401159;28;20056;-62
2022/01/22 00:16:22;;;;;;;8.35;7.28;;;;;;;1.85;100.00;99117.94;10402653;28;20483;-61
2022/01/22 00:21:25;;;;;;;8.73;7.45;;;;;;;1.81;100.00;99120.88;10402505;28;20041;-61
2022/01/22 00:26:28;;;;;;;10.23;7.85;;;;;;;1.88;100.00;99126.69;10405427;28;20128;-61
2022/01/22 00:31:36;;;;;;;7.93;6.68;;;;;;;1.88;100.00;99122.25;10405195;28;20128;-57
2022/01/22 00:36:40;;;;;;;8.13;6.88;;;;;;;1.93;100.00;99125.47;10438958;28;20025;-61
2022/01/22 00:41:43;;;;;;;6.07;5.45;;;;;;;1.98;100.00;99127.84;10456707;28;20034;-60
2022/01/22 00:46:48;;;;;;;6.50;5.05;;;;;;;2.00;100.00;99136.59;10403907;28;20460;-58
2022/01/22 00:51:51;;;;;;;5.35;4.85;;;;;;;2.03;100.00;99125.81;10398845;28;20044;-61
2022/01/22 00:56:54;;;;;;;5.32;4.82;;;;;;;2.10;100.00;99116.50;10401400;28;20129;-59
2022/01/22 01:02:00;;;;;;;5.70;5.00;;;;;;;2.08;100.00;99115.72;10399503;28;20124;-61
2022/01/22 01:07:04;;;;;;;5.88;4.80;;;;;;;2.10;100.00;99108.53;10397437;28;20080;-61
2022/01/22 01:12:11;;;;;;;5.38;4.88;;;;;;;2.09;100.00;99109.47;10400853;28;20059;-60
2022/01/22 01:17:45;;;;;;;5.45;4.95;;;;;;;2.14;100.00;99107.41;10400695;28;20410;-61
2022/01/22 01:33:51;;;;;;;4.40;4.00;;;;;;;2.33;100.00;99127.56;10193333;29;20718;-58
2022/01/22 01:39:04;;;;;;;5.13;4.00;;;;;;;2.36;100.00;99130.06;10518158;27;20610;-58
2022/01/22 01:44:08;;;;;;;3.95;3.65;;;;;;;2.37;100.00;99128.25;10446657;28;20572;-60
2022/01/22 01:49:29;;;;;;;;;;;;;;;2.44;100.00;99124.28;10434391;28;20049;-59
2022/01/22 01:54:45;;;;;;;3.10;2.90;;;;;;;2.55;100.00;99131.59;10431909;28;19974;-59
2022/01/22 01:59:50;;;;;;;3.47;3.17;;;;;;;2.56;100.00;99144.84;10435223;28;20087;-57
2022/01/22 02:05:01;;;;;;;3.78;3.40;;;;;;;2.54;100.00;99143.19;10447756;28;20049;-56
2022/01/22 02:10:08;;;;;;;3.85;3.42;;;;;;;2.57;100.00;99145.66;10433719;28;20041;-59
2022/01/22 02:26:23;;;;;;;3.60;3.30;;;;;;;2.68;100.00;99137.91;10446158;28;20497;-60
2022/01/22 02:31:33;;;;;;;5.93;4.47;;;;;;;2.66;100.00;99126.50;10445235;28;20460;-57
2022/01/22 02:36:43;;;;;;;4.60;4.20;;;;;;;2.69;100.00;99139.59;10435364;28;20338;-61
2022/01/22 02:41:50;;;;;;;5.07;4.57;;;;;;;2.74;100.00;99142.00;10432906;28;20393;-54
2022/01/22 02:46:54;;;;;;;6.53;5.22;;;;;;;2.72;100.00;99134.09;10423874;28;20104;-58
2022/01/22 02:52:00;;;;;;;6.47;4.88;;;;;;;2.72;100.00;99138.56;10413144;28;20501;-58
2022/01/22 02:57:04;;;;;;;5.85;4.38;;;;;;;2.76;100.00;99148.91;10428875;28;20048;-55
2022/01/22 03:02:12;;;;;;;6.13;4.20;;;;;;;2.79;100.00;99155.88;10424090;28;20049;-61
2022/01/22 03:07:17;;;;;;;5.18;4.68;;;;;;;2.77;100.00;99155.13;10412845;28;20045;-55
2022/01/22 03:12:47;;;;;;;5.30;4.53;;;;;;;2.83;100.00;99151.22;10409940;28;20427;-56
2022/01/22 03:17:57;;;;;;;5.85;4.70;;;;;;;2.80;100.00;99162.03;10419123;28;20060;-58
2022/01/22 03:23:09;;;;;;;7.13;4.63;;;;;;;2.81;100.00;99155.78;10440308;28;20460;-57
2022/01/22 03:28:18;;;;;;;4.38;3.97;;;;;;;2.85;100.00;99160.81;10424244;28;20048;-56
2022/01/22 03:33:23;;;;;;;4.80;4.30;;;;;;;2.86;100.00;99172.34;10420616;28;20162;-58
2022/01/22 03:38:28;;;;;;;4.07;3.47;;;;;;;2.92;100.00;99182.59;10413887;28;20055;-58
2022/01/22 03:43:31;;;;;;;4.38;3.70;;;;;;;2.89;100.00;99191.63;10404567;28;20531;-59
2022/01/22 03:48:36;;;;;;;3.97;3.40;;;;;;;2.92;100.00;99187.91;10404632;28;20041;-55
2022/01/22 03:53:42;;;;;;;4.63;4.10;;;;;;;2.94;100.00;99202.00;10415537;28;20050;-60
2022/01/22 03:58:46;;;;;;;4.22;3.83;;;;;;;2.95;100.00;99211.69;10395676;28;20049;-59
2022/01/22 04:04:29;;;;;;;4.85;4.20;;;;;;;2.93;100.00;99213.59;10332867;28;20130;-61
2022/01/22 04:09:39;;;;;;;4.97;4.10;;;;;;;2.95;100.00;99225.00;10400600;28;20068;-58
2022/01/22 04:14:48;;;;;;;3.63;3.33;;;;;;;2.96;100.00;99218.72;10402418;28;20114;-58
2022/01/22 04:25:20;;;;;;;4.18;3.53;;;;;;;2.99;100.00;99225.66;10402989;28;20053;-58
2022/01/22 04:30:27;;;;;;;4.88;3.85;;;;;;;2.94;100.00;99220.63;10399070;28;20053;-58
2022/01/22 04:35:30;;;;;;;5.20;3.50;;;;;;;2.97;100.00;99227.56;10410553;28;20057;-57
2022/01/22 04:40:35;;;;;;;3.90;3.50;;;;;;;2.97;100.00;99215.13;10418061;28;20134;-60
2022/01/22 04:45:52;;;;;;;4.78;4.28;;;;;;;2.96;100.00;99234.69;10396363;28;20545;-54
2022/01/22 04:56:23;;;;;;;5.70;4.03;;;;;;;2.96;100.00;99224.06;10422534;28;20037;-57
2022/01/22 05:01:26;;;;;;;5.15;4.15;;;;;;;2.96;100.00;99236.50;10420424;28;20747;-58
2022/01/22 05:06:43;;;;;;;4.53;4.10;;;;;;;2.98;100.00;99245.25;10398969;28;20427;-62
2022/01/22 05:11:58;;;;;;;5.20;4.65;;;;;;;2.98;100.00;99240.78;10396228;28;20134;-58
2022/01/22 05:17:06;;;;;;;5.80;4.85;;;;;;;2.98;100.00;99245.25;10399743;28;20916;-60
2022/01/22 05:22:18;;;;;;;6.53;4.50;;;;;;;3.01;100.00;99248.56;10400814;28;20600;-59
2022/01/22 05:27:47;;;;;;;7.07;4.97;;;;;;;3.00;100.00;99257.50;10413814;28;20045;-56
2022/01/22 05:33:16;;;;;;;6.43;4.82;;;;;;;3.03;100.00;99275.13;10419613;28;20049;-57
2022/01/22 05:38:51;;;;;;;5.28;4.47;;;;;;;3.06;100.00;99285.56;10401550;28;20796;-59
2022/01/22 05:43:56;;;;;;;5.20;4.70;;;;;;;3.07;100.00;99308.56;10422355;28;20076;-57
2022/01/22 05:48:59;;;;;;;4.95;4.45;;;;;;;3.11;100.00;99318.09;10404299;28;20037;-57
2022/01/22 05:54:30;;;;;;;7.38;4.47;;;;;;;3.14;100.00;99291.31;10402443;28;20155;-57
2022/01/22 05:59:39;;;;;;;5.40;4.90;;;;;;;3.19;100.00;99317.66;10405178;28;20038;-55
2022/01/22 06:04:46;;;;;;;4.50;4.10;;;;;;;3.22;100.00;99301.50;10401112;28;20401;-57
2022/01/22 06:10:03;;;;;;;5.43;4.93;;;;;;;3.21;100.00;99305.09;10408759;28;20041;-56
2022/01/22 06:15:10;;;;;;;5.45;4.80;;;;;;;3.23;100.00;99335.16;10412586;28;20072;-57
2022/01/22 06:20:32;;;;;;;5.72;5.13;;;;;;;3.24;100.00;99339.53;10419410;28;20049;-55
2022/01/22 06:25:36;;;;;;;5.38;4.88;;;;;;;3.30;100.00;99343.63;10409274;28;20053;-56
2022/01/22 06:30:44;;;;;;;5.57;5.00;;;;;;;3.32;100.00;99347.06;10425831;28;20049;-58
2022/01/22 06:35:47;;;;;;;4.53;4.07;;;;;;;3.30;100.00;99365.81;10411505;28;20087;-60
2022/01/22 06:46:39;;;;;;;3.78;3.45;;;;;;;3.30;100.00;99379.13;10380014;28;20417;-54
2022/01/22 06:52:18;;;;;;;2.90;2.70;;;;;;;3.33;100.00;99376.28;10358006;28;20144;-55
2022/01/22 06:57:21;;;;;;;2.55;2.35;;;;;;;3.33;100.00;99386.94;10422450;28;20053;-54
2022/01/22 07:02:26;;;;;;;2.58;2.38;;;;;;;3.34;100.00;99387.78;10422153;28;20076;-57
2022/01/22 07:07:31;;;;;;;2.95;2.63;;;;;;;3.33;100.00;99399.38;10408425;28;20057;-57
2022/01/22 07:12:34;;;;;;;2.22;2.10;;;;;;;3.33;100.00;99399.38;10410185;28;20140;-57
2022/01/22 07:17:40;;;;;;;1.17;1.17;;;;;;;3.35;100.00;99403.66;10435203;28;20057;-59
2022/01/22 07:22:51;;;;;;;1.20;1.20;;;;;;;3.36;100.00;99405.38;10414679;28;20044;-56
2022/01/22 07:28:15;;;;;;;1.38;1.27;;;;;;;3.35;100.00;99418.78;10429233;28;20069;-57
2022/01/22 07:33:21;;;;;;;2.00;1.80;;;;;;;3.37;100.00;99423.06;10413154;28;20053;-60
2022/01/22 07:38:24;;;;;;;1.85;1.70;;;;;;;3.40;100.00;99432.72;10433344;28;20436;-59
2022/01/22 07:43:29;;;;;;;1.60;1.50;;;;;;;3.42;100.00;99436.13;10416481;28;20060;-58
2022/01/22 07:48:39;;;;;;;1.50;1.40;;;;;;;3.39;100.00;99429.19;10416246;28;20103;-57
2022/01/22 07:53:45;;;;;;;2.10;1.77;;;;;;;3.37;100.00;99439.06;10413722;28;20136;-58
2022/01/22 07:58:57;;;;;;;2.17;1.98;;;;;;;3.35;100.00;99440.94;10418656;28;20406;-60
2022/01/22 08:04:03;;;;;;;2.60;2.40;;;;;;;3.35;100.00;99446.28;9518759;28;10000322;-57
2022/01/22 08:09:38;;;;;;;3.15;2.85;;;;;;;3.35;100.00;99456.94;10382478;28;20050;-58
2022/01/22 08:14:57;;;;;;;3.47;3.17;;;;;;;3.35;100.00;99461.41;10394193;28;20135;-58
2022/01/22 08:20:02;;;;;;;4.30;3.90;;;;;;;3.37;100.00;99449.72;9516205;28;10000659;-62
2022/01/22 08:25:24;;;;;;;3.60;3.30;;;;;;;3.42;100.00;99459.25;10370070;28;20046;-57
2022/01/22 08:30:40;;;;;;;4.35;3.92;;;;;;;3.39;100.00;99471.81;10377945;28;20104;-60
2022/01/22 08:35:54;;;;;;;4.25;3.67;;;;;;;3.38;100.00;99467.41;9579562;28;10000523;-62
2022/01/22 08:41:02;;;;;;;3.97;3.58;;;;;;;3.39;100.00;99473.63;10422037;28;20480;-62
2022/01/22 08:46:08;;;;;;;3.80;3.47;;;;;;;3.39;100.00;99485.13;10421768;28;20083;-62
2022/01/22 08:51:13;;;;;;;4.40;4.00;;;;;;;3.41;100.00;99481.50;10383559;28;20057;-60
2022/01/22 08:56:23;;;;;;;5.27;4.70;;;;;;;3.41;100.00;99489.50;10360666;28;20450;-61
2022/01/22 09:01:27;;;;;;;6.97;5.03;;;;;;;3.44;100.00;99487.50;10378023;28;20042;-61
2022/01/22 09:06:33;;;;;;;4.90;4.40;;;;;;;3.47;100.00;99495.34;10372017;28;20056;-62
2022/01/22 09:12:10;;;;;;;4.82;4.35;;;;;;;3.50;100.00;99503.16;10348118;28;20052;-59
2022/01/22 09:17:16;;;;;;;3.63;3.20;;;;;;;3.51;100.00;99504.00;10389145;28;20073;-61
2022/01/22 09:22:20;;;;;;;3.00;2.70;;;;;;;3.50;100.00;99508.47;10370981;28;20502;-58
2022/01/22 09:27:27;;;;;;;2.78;2.58;;;;;;;3.52;100.00;99516.38;10376103;28;20502;-58
2022/01/22 09:32:31;;;;;;;2.50;2.30;;;;;;;3.54;100.00;99520.66;10377643;28;20101;-59
2022/01/22 09:37:54;;;;;;;2.20;2.00;;;;;;;3.55;100.00;99534.84;10377435;28;20049;-58
2022/01/22 09:43:16;;;;;;;2.45;1.90;;;;;;;3.63;100.00;99524.59;10379556;28;20057;-59
2022/01/22 09:48:47;;;;;;;2.00;1.90;;;;;;;3.69;100.00;99536.72;10366395;28;20056;-59
2022/01/22 09:54:11;;;;;;;1.70;1.60;;;;;;;3.72;100.00;99539.19;10375994;28;20050;-57
2022/01/22 09:59:40;;;;;;;1.30;1.20;;;;;;;3.77;100.00;99544.25;10382676;28;20057;-59
2022/01/22 10:05:02;;;;;;;1.50;1.40;;;;;;;3.81;100.00;99545.81;10389511;28;20050;-58
2022/01/22 10:10:12;;;;;;;1.80;1.70;;;;;;;3.85;100.00;99552.66;10380118;28;20050;-59
2022/01/22 10:15:17;;;;;;;2.17;1.60;;;;;;;3.90;100.00;99542.59;10389392;28;20049;-59
2022/01/22 10:20:33;;;;;;;3.05;2.00;;;;;;;3.85;100.00;99555.31;10386627;28;20037;-60
2022/01/22 10:25:42;;;;;;;5.07;2.90;;;;;;;3.88;100.00;99548.97;10382499;28;20048;-58
2022/01/22 10:30:51;;;;;;;3.88;2.25;;;;;;;3.84;100.00;99553.59;10416613;28;20100;-58
2022/01/22 10:36:15;;;;;;;4.70;2.10;;;;;;;3.88;100.00;99564.97;10384492;28;20157;-59
2022/01/22 10:41:43;;;;;;;6.88;2.50;;;;;;;3.83;100.00;99557.22;10388944;28;20571;-58
2022/01/22 10:46:51;;;;;;;6.78;2.83;;;;;;;3.87;100.00;99558.75;10375690;28;20046;-59
2022/01/22 10:51:59;;;;;;;8.88;3.33;;;;;;;3.90;100.00;99563.91;10377820;28;20092;-61
2022/01/22 10:57:17;;;;;;;3.72;2.40;;;;;;;3.91;100.00;99570.09;10378511;28;20053;-58
2022/01/22 11:02:32;;;;;;;9.48;4.10;;;;;;;3.90;100.00;99577.25;10376760;28;20045;-59
2022/01/22 11:07:37;;;;;;;12.23;4.63;;;;;;;3.94;100.00;99570.78;10395743;28;20048;-59
2022/01/22 11:12:43;;;;;;;12.05;4.78;;;;;;;3.93;100.00;99562.88;10388374;28;20409;-59
2022/01/22 11:17:54;;;;;;;14.07;5.18;;;;;;;4.00;100.00;99564.22;10373215;28;20044;-58
2022/01/22 11:23:02;;;;;;;11.35;5.68;;;;;;;4.07;100.00;99570.03;10385180;28;20383;-60
2022/01/22 11:28:10;;;;;;;11.32;5.68;;;;;;;4.07;100.00;99564.72;10382765;28;20045;-58
2022/01/22 11:33:21;;;;;;;11.45;5.35;;;;;;;4.06;100.00;99563.03;10398006;28;20042;-62
2022/01/22 11:38:32;;;;;;;11.27;5.93;;;;;;;4.09;100.00;99558.34;10379719;28;20054;-59
2022/01/22 11:44:08;;;;;;;12.68;6.55;;;;;;;4.05;100.00;99561.31;10380539;28;20046;-58
2022/01/22 11:49:25;;;;;;;14.35;7.03;;;;;;;4.15;100.00;99562.47;10401259;22;20065;-54
2022/01/22 11:54:51;;;;;;;13.70;6.60;;;;;;;4.24;100.00;99572.56;10402534;28;20107;-57
2022/01/22 12:00:25;;;;;;;10.50;6.63;;;;;;;4.22;100.00;99565.63;10404433;28;20042;-53
2022/01/22 12:05:29;;;;;;;8.90;4.80;;;;;;;4.13;100.00;99565.19;10393482;28;20127;-52
2022/01/22 12:10:38;;;;;;;7.55;4.75;;;;;;;4.14;100.00;99568.75;10404715;28;20072;-55
2022/01/22 12:15:53;;;;;;;11.15;5.50;;;;;;;4.25;100.00;99568.06;10406950;28;20505;-54
2022/01/22 12:26:52;;;;;;;7.45;4.32;;;;;;;4.32;100.00;99559.63;10428925;28;20084;-51
2022/01/22 12:32:25;;;;;;;8.30;3.90;;;;;;;4.37;100.00;99556.66;10406611;28;20073;-51
2022/01/22 12:37:32;;;;;;;7.13;3.65;;;;;;;4.39;100.00;99554.75;10415210;28;20075;-51
2022/01/22 12:48:16;;;;;;;7.22;3.38;;;;;;;4.46;100.00;99552.59;10411719;28;20666;-51
2022/01/22 12:53:22;;;;;;;6.95;3.35;;;;;;;4.50;100.00;99553.25;10411721;28;20480;-51
2022/01/22 12:58:28;;;;;;;5.00;3.08;;;;;;;4.55;100.00;99551.16;10404602;28;20067;-52
2022/01/22 13:03:35;;;;;;;5.88;3.00;;;;;;;4.55;100.00;99553.84;10411711;28;20037;-55
2022/01/22 13:08:42;;;;;;;4.18;2.60;;;;;;;4.56;100.00;99553.72;10407751;28;20060;-56
2022/01/22 13:13:54;;;;;;;5.70;2.20;;;;;;;4.57;100.00;99547.44;10405521;28;20057;-52
2022/01/22 13:19:02;;;;;;;4.40;1.90;;;;;;;4.47;100.00;99549.81;10409316;28;20517;-54
2022/01/22 13:24:09;;;;;;;2.70;1.70;;;;;;;4.48;100.00;99556.88;10410083;28;20505;-51
2022/01/22 13:29:25;;;;;;;4.45;2.85;;;;;;;4.49;100.00;99563.06;10408294;28;20158;-51
2022/01/22 13:34:40;;;;;;;8.82;3.85;;;;;;;4.45;100.00;99570.41;10405745;28;20046;-51
2022/01/22 13:40:10;;;;;;;8.35;4.60;;;;;;;4.47;100.00;99564.97;10405313;28;20041;-54
2022/01/22 13:45:25;;;;;;;10.55;4.57;;;;;;;4.46;100.00;99577.47;10404994;28;20041;-51
2022/01/22 13:50:34;;;;;;;9.13;4.93;;;;;;;4.47;100.00;99579.16;10403598;28;20053;-55
2022/01/22 13:55:39;;;;;;;77.18;7.30;;;;;;;4.43;100.00;99576.78;10401405;28;20053;-53
2022/01/22 14:00:45;;;;;;;23.63;4.88;;;;;;;4.44;100.00;99578.50;10408654;28;20045;-50
2022/01/22 14:06:13;;;;;;;12.70;4.05;;;;;;;4.40;100.00;99579.66;10404625;28;20051;-53
2022/01/22 14:11:18;;;;;;;59.10;6.22;;;;;;;4.37;100.00;99583.34;10401630;28;20045;-51
2022/01/22 14:16:22;;;;;;;13.05;4.07;;;;;;;4.35;100.00;99576.41;10422907;28;20128;-51
2022/01/22 14:21:28;;;;;;;30.90;4.40;;;;;;;4.35;100.00;99584.41;10422779;28;20037;-55
2022/01/22 14:26:35;;;;;;;430.83;20.10;;;;;;;4.35;100.00;99595.06;10408621;28;20042;-51
2022/01/22 14:31:47;;;;;;;36.42;5.95;;;;;;;4.34;100.00;99588.03;10404133;28;20045;-52
2022/01/22 14:36:52;;;;;;;42.67;7.75;;;;;;;4.34;100.00;99590.69;10406783;28;20068;-53
2022/01/22 14:47:21;;;;;;;60.72;8.95;;;;;;;4.31;100.00;99595.25;10412675;28;20046;-51
2022/01/22 14:52:28;;;;;;;9.27;7.00;;;;;;;4.35;100.00;99601.25;10410834;28;20121;-52
2022/01/22 14:57:39;;;;;;;9.35;7.22;;;;;;;4.38;100.00;99603.75;10411873;28;20048;-51
2022/01/22 15:02:45;;;;;;;10.07;7.32;;;;;;;4.42;100.00;99607.06;10414091;28;20065;-51
2022/01/22 15:07:54;;;;;;;10.20;8.15;;;;;;;4.42;100.00;99601.75;10408482;28;20156;-51
2022/01/22 15:12:58;;;;;;;21.77;10.75;;;;;;;4.41;100.00;99602.72;10413817;28;20049;-52
2022/01/22 15:18:11;;;;;;;18.20;11.65;;;;;;;4.43;100.00;99616.81;10411017;28;20053;-51
2022/01/22 15:23:18;;;;;;;29.65;13.80;;;;;;;4.44;100.00;99621.19;10422473;28;20115;-52
2022/01/22 15:28:24;;;;;;;11.05;8.93;;;;;;;4.43;100.00;99624.81;10408272;28;20045;-52
2022/01/22 15:33:50;;;;;;;7.30;6.53;;;;;;;4.46;100.00;99629.97;10409827;28;20044;-52
2022/01/22 15:39:06;;;;;;;6.65;4.90;;;;;;;4.47;100.00;99631.69;10408010;28;20045;-50
2022/01/22 15:44:11;;;;;;;5.15;3.97;;;;;;;4.49;100.00;99629.78;10408085;28;20042;-51
2022/01/22 15:49:18;;;;;;;4.97;3.22;;;;;;;4.50;100.00;99636.84;10406472;28;20045;-50
2022/01/22 15:54:24;;;;;;;3.25;2.50;;;;;;;4.47;100.00;99642.38;10409702;28;20476;-50
2022/01/22 15:59:29;;;;;;;3.65;2.40;;;;;;;4.50;100.00;99652.00;10406916;28;20121;-52
2022/01/22 16:04:35;;;;;;;4.28;2.70;;;;;;;4.47;100.00;99653.03;10390158;28;20038;-51
2022/01/22 16:09:43;;;;;;;3.85;2.60;;;;;;;4.46;100.00;99654.00;10435389;28;20041;-50
2022/01/22 16:14:56;;;;;;;5.97;3.40;;;;;;;4.46;100.00;99667.34;10391059;28;20060;-51
2022/01/22 16:20:04;;;;;;;5.50;3.72;;;;;;;4.44;100.00;99664.78;10415006;28;20045;-51
2022/01/22 16:25:10;;;;;;;4.32;3.53;;;;;;;4.42;100.00;99665.78;10408498;28;20041;-49
2022/01/22 16:30:18;;;;;;;5.90;3.92;;;;;;;4.38;100.00;99658.94;10407045;28;20128;-50
2022/01/22 16:35:22;;;;;;;5.07;3.85;;;;;;;4.36;100.00;99674.16;10408560;28;20060;-52
2022/01/22 16:40:30;;;;;;;5.10;3.85;;;;;;;4.35;100.00;99667.97;10404442;28;20045;-52
2022/01/22 16:56:25;;;;;;;6.25;3.20;;;;;;;4.35;100.00;99672.44;10403182;28;20053;-52
2022/01/22 17:01:34;;;;;;;5.32;3.10;;;;;;;4.35;100.00;99669.78;10403968;28;20068;-49
2022/01/22 17:06:40;;;;;;;4.32;3.38;;;;;;;4.34;100.00;99673.41;10405738;28;20500;-49
2022/01/22 17:17:05;;;;;;;4.13;3.40;;;;;;;4.32;100.00;99673.50;10403143;28;20118;-51
2022/01/22 17:22:10;;;;;;;7.75;4.35;;;;;;;4.34;100.00;99684.94;10405202;28;20040;-51
2022/01/22 17:27:19;;;;;;;5.25;4.75;;;;;;;4.31;100.00;99691.28;10405022;28;20144;-50
2022/01/22 17:32:24;;;;;;;6.50;5.05;;;;;;;4.31;100.00;99693.13;10400282;28;20406;-53
2022/01/22 17:37:28;;;;;;;5.75;4.97;;;;;;;4.28;100.00;99691.50;10403680;28;20502;-52
2022/01/22 17:42:35;;;;;;;4.20;3.80;;;;;;;4.28;100.00;99702.16;10409282;28;20045;-51
2022/01/22 17:47:40;;;;;;;5.22;4.15;;;;;;;4.27;100.00;99692.44;10401434;28;20054;-51
2022/01/22 17:52:52;;;;;;;7.43;4.57;;;;;;;4.25;100.00;99689.00;10391197;28;20068;-52
2022/01/22 17:57:57;;;;;;;4.90;3.88;;;;;;;4.25;100.00;99690.78;10422208;28;20794;-54
2022/01/22 18:03:25;;;;;;;5.32;4.40;;;;;;;4.24;100.00;99702.41;10432212;28;20091;-55
2022/01/22 18:08:29;;;;;;;3.88;3.15;;;;;;;4.25;100.00;99704.13;10411816;28;20414;-53
2022/01/22 18:13:37;;;;;;;5.32;3.40;;;;;;;4.24;100.00;99708.63;10413266;28;20743;-55
2022/01/22 18:18:42;;;;;;;5.20;3.35;;;;;;;4.25;100.00;99704.13;10413103;28;20406;-53
2022/01/22 18:24:02;;;;;;;3.97;3.05;;;;;;;4.24;100.00;99702.41;10413224;28;20038;-54
2022/01/22 18:29:10;;;;;;;3.60;3.30;;;;;;;4.23;100.00;99712.25;10419641;28;20049;-56
2022/01/22 18:34:15;;;;;;;4.57;2.90;;;;;;;4.23;100.00;99717.56;10411568;28;20414;-55
2022/01/22 18:39:19;;;;;;;3.22;2.70;;;;;;;4.19;100.00;99718.69;10412203;28;20409;-53
2022/01/22 18:44:28;;;;;;;2.80;2.55;;;;;;;4.22;100.00;99723.00;10416292;28;20049;-53
2022/01/22 18:49:33;;;;;;;2.63;2.42;;;;;;;4.23;100.00;99730.06;10408866;28;20054;-55
2022/01/22 18:54:37;;;;;;;5.78;2.83;;;;;;;4.19;100.00;99724.03;10415153;28;20502;-58
2022/01/22 18:59:43;;;;;;;3.75;2.72;;;;;;;4.20;100.00;99725.75;10412284;28;20046;-56
2022/01/22 19:04:48;;;;;;;2.60;2.40;;;;;;;4.18;100.00;99730.31;10415081;28;20045;-55
2022/01/22 19:09:52;;;;;;;3.20;2.90;;;;;;;4.16;100.00;99737.56;10411277;28;20128;-53
2022/01/22 19:14:58;;;;;;;3.20;2.88;;;;;;;4.16;100.00;99740.22;10411840;28;20057;-55
2022/01/22 19:20:02;;;;;;;3.65;2.95;;;;;;;4.15;100.00;99755.34;10419429;28;20092;-55
2022/01/22 19:25:16;;;;;;;3.33;3.03;;;;;;;4.15;100.00;99750.03;10409522;28;20061;-55
2022/01/22 19:30:22;;;;;;;3.92;3.50;;;;;;;4.15;100.00;99759.84;10408596;28;20147;-52
2022/01/22 19:35:29;;;;;;;4.38;3.97;;;;;;;4.14;100.00;99758.13;10409860;28;20465;-54
2022/01/22 19:40:37;;;;;;;4.55;4.15;;;;;;;4.13;100.00;99751.06;10407621;28;20050;-56
2022/01/22 19:45:45;;;;;;;4.40;4.00;;;;;;;4.09;100.00;99760.19;10410481;28;20099;-55
2022/01/22 19:50:49;;;;;;;4.63;3.40;;;;;;;4.08;100.00;99758.44;10423549;28;20049;-55
2022/01/22 19:55:57;;;;;;;3.40;3.10;;;;;;;4.07;100.00;99767.41;10417937;28;20220;-54
2022/01/22 20:01:06;;;;;;;3.30;3.00;;;;;;;4.04;100.00;99760.44;10411655;28;20044;-55
2022/01/22 20:06:10;;;;;;;3.45;3.15;;;;;;;4.00;100.00;99748.22;10410993;28;20501;-55
2022/01/22 20:11:14;;;;;;;4.18;3.55;;;;;;;3.94;100.00;99762.75;10410704;28;20061;-55
2022/01/22 20:16:21;;;;;;;4.63;4.03;;;;;;;3.92;100.00;99759.34;10407159;28;20453;-53
2022/01/22 20:21:25;;;;;;;5.18;4.68;;;;;;;3.89;100.00;99764.84;10407426;28;20044;-56
2022/01/22 20:26:40;;;;;;;5.20;4.70;;;;;;;3.85;100.00;99761.47;10413480;28;20038;-54
2022/01/22 20:31:52;;;;;;;4.97;4.50;;;;;;;3.83;100.00;99760.69;10407830;28;20556;-56
2022/01/22 20:36:56;;;;;;;6.03;5.15;;;;;;;3.80;100.00;99760.03;10407994;28;20038;-55
2022/01/22 20:42:03;;;;;;;6.43;4.50;;;;;;;3.78;100.00;99772.56;10407643;28;20075;-53
2022/01/22 20:47:29;;;;;;;5.28;4.18;;;;;;;3.76;100.00;99777.13;10404705;28;20044;-55
2022/01/22 20:52:36;;;;;;;3.58;3.28;;;;;;;3.69;100.00;99777.47;10402971;28;20045;-53
2022/01/22 20:57:50;;;;;;;3.72;3.42;;;;;;;3.70;100.00;99781.81;10403445;28;20044;-56
2022/01/22 21:03:02;;;;;;;4.25;2.90;;;;;;;3.71;100.00;99785.38;10406011;28;20406;-55
2022/01/22 21:08:13;;;;;;;3.70;3.30;;;;;;;3.67;100.00;99771.34;10408200;28;20069;-55
2022/01/22 21:13:19;;;;;;;;;;;;;;;3.61;100.00;99771.66;10405556;28;20512;-52
2022/01/22 21:18:26;;;;;;;4.20;2.67;;;;;;;3.62;100.00;99772.56;10407210;28;19935;-56
2022/01/22 21:23:31;;;;;;;3.08;2.70;;;;;;;3.60;100.00;99769.94;10405552;28;20041;-55
2022/01/22 21:28:35;;;;;;;2.90;2.53;;;;;;;3.56;100.00;99773.75;10405322;28;20456;-55
2022/01/22 21:33:50;;;;;;;3.00;2.70;;;;;;;3.52;100.00;99778.38;10404525;28;20041;-58
2022/01/22 21:44:16;;;;;;;3.38;2.58;;;;;;;3.44;100.00;99788.56;10421665;28;20069;-55
2022/01/22 21:49:21;;;;;;;3.13;2.92;;;;;;;3.43;100.00;99780.69;10416181;28;20123;-55
2022/01/22 21:54:29;;;;;;;3.22;2.92;;;;;;;3.42;100.00;99790.44;10415663;28;20103;-54
2022/01/22 21:59:34;;;;;;;2.92;2.63;;;;;;;3.42;100.00;99781.63;10412396;28;20041;-54
2022/01/22 22:04:40;;;;;;;3.58;3.00;;;;;;;3.37;100.00;99793.38;10414623;28;20090;-58
2022/01/22 22:09:45;;;;;;;3.67;2.90;;;;;;;3.36;100.00;99788.97;10415297;28;20049;-54
2022/01/22 22:14:54;;;;;;;3.13;2.85;;;;;;;3.32;100.00;99802.53;10428834;28;20401;-56
2022/01/22 22:20:02;;;;;;;3.47;3.00;;;;;;;3.30;100.00;99805.31;10413833;28;20061;-54
2022/01/22 22:25:09;;;;;;;3.17;2.88;;;;;;;3.27;100.00;99809.94;10414081;28;20152;-56
2022/01/22 22:30:16;;;;;;;3.20;2.72;;;;;;;3.22;100.00;99813.69;10413645;28;20041;-55
2022/01/22 22:35:22;;;;;;;3.30;3.00;;;;;;;3.24;100.00;99810.94;10412328;28;20051;-57
2022/01/22 22:40:27;;;;;;;3.83;3.10;;;;;;;3.21;100.00;99824.44;10408426;28;20073;-53
2022/01/22 22:45:33;;;;;;;3.72;3.28;;;;;;;3.17;100.00;99814.88;10412373;28;20087;-55
2022/01/22 22:50:38;;;;;;;5.15;3.60;;;;;;;3.11;100.00;99816.06;10408335;28;20046;-55
2022/01/22 22:55:43;;;;;;;4.50;4.03;;;;;;;3.08;100.00;99814.41;10408469;28;20120;-55
2022/01/22 23:00:56;;;;;;;4.68;4.28;;;;;;;3.06;100.00;99826.06;10411416;28;20057;-54
2022/01/22 23:06:05;;;;;;;6.15;5.10;;;;;;;3.01;100.00;99810.31;10411637;28;20076;-54
2022/01/22 23:11:13;;;;;;;9.13;5.80;;;;;;;3.00;100.00;99819.25;10409271;28;20124;-54
2022/01/22 23:16:22;;;;;;;7.82;6.10;;;;;;;2.99;100.00;99822.88;10409636;28;20045;-57
2022/01/22 23:21:44;;;;;;;8.43;6.10;;;;;;;2.97;100.00;99830.06;10417777;28;20073;-57
2022/01/22 23:26:55;;;;;;;9.98;6.40;;;;;;;2.96;100.00;99825.69;10397342;28;20050;-57
2022/01/22 23:31:59;;;;;;;8.25;6.13;;;;;;;2.97;100.00;99832.75;10413655;28;20048;-56
2022/01/22 23:58:44;;;;;;;5.40;4.88;;;;;;;2.90;100.00;99840.19;10419712;28;21679;-52
